Terminal Aerodrome Forecast
Issued by NWS Pocatello, ID

Home | Current Version | Previous Version | Text Only | Print | Product List | Glossary On
Versions: 1 2 3 4 5 6 7 8 9 10 11 12 13
000
FTUS45 KPIH 171100
TAFBYI
TAF
KBYI 171120Z 1712/1812 22009KT P6SM SCT200
     FM171500 24012KT P6SM SCT150
     FM180800 24012KT P6SM BKN090 OVC120=

USA.gov is the U.S. government's official web portal to all federal, state and local government web resources and services.